createdAt,value
2022-12-31T00:01:28.592Z,99014.47
2022-12-31T00:03:58.732Z,99012.63
2022-12-31T00:06:29.624Z,99015.03
2022-12-31T00:09:06.295Z,99008.09
2022-12-31T00:11:36.440Z,99004.03
2022-12-31T00:14:05.877Z,99003.28
2022-12-31T00:16:37.659Z,98997.72
2022-12-31T00:19:08.385Z,98998.81
2022-12-31T00:21:38.358Z,98998.81
2022-12-31T00:24:09.795Z,98998.25
2022-12-31T00:26:39.038Z,98999.16
2022-12-31T00:29:08.053Z,98994.78
2022-12-31T00:31:39.487Z,98993.13
2022-12-31T00:34:09.134Z,98991.63
2022-12-31T00:36:40.429Z,98990.88
2022-12-31T00:39:12.231Z,98987.41
2022-12-31T00:41:43.491Z,98987.41
2022-12-31T00:44:13.332Z,98987.09
2022-12-31T00:49:10.996Z,98982.88
2022-12-31T00:51:40.031Z,98986.75
2022-12-31T00:54:10.488Z,98981.44
2022-12-31T00:56:39.556Z,98973.25
2022-12-31T00:59:08.506Z,98979.13
2022-12-31T01:01:39.976Z,98973.81
2022-12-31T01:04:12.225Z,98970.94
2022-12-31T01:06:41.389Z,98980.50
2022-12-31T01:09:12.922Z,98978.50
2022-12-31T01:11:42.573Z,98972.31
2022-12-31T01:14:14.504Z,98972.31
2022-12-31T01:16:47.748Z,98970.50
2022-12-31T01:19:20.498Z,98979.53
2022-12-31T01:21:51.253Z,98976.13
2022-12-31T01:24:22.329Z,98975.44
2022-12-31T01:26:52.158Z,98972.94
2022-12-31T01:29:21.208Z,98971.69
2022-12-31T01:31:50.457Z,98977.06
2022-12-31T01:34:19.471Z,98978.03
2022-12-31T01:36:48.712Z,98980.25
2022-12-31T01:39:17.798Z,98983.78
2022-12-31T01:41:49.318Z,98978.72
2022-12-31T01:44:51.508Z,98978.19
2022-12-31T01:47:30.386Z,98978.94
2022-12-31T01:50:03.875Z,98976.03
2022-12-31T01:52:38.060Z,98981.00
2022-12-31T01:55:14.690Z,98972.97
2022-12-31T01:57:47.079Z,98982.16
2022-12-31T02:00:16.849Z,98984.72
2022-12-31T02:02:46.448Z,98979.94
2022-12-31T02:05:21.585Z,98981.44
2022-12-31T02:07:51.448Z,98978.88
2022-12-31T02:10:20.469Z,98977.63
2022-12-31T02:12:51.386Z,98972.50
2022-12-31T02:15:24.683Z,98971.59
2022-12-31T02:18:01.965Z,98982.00
2022-12-31T02:21:04.079Z,98984.56
2022-12-31T02:24:23.484Z,98975.22
2022-12-31T02:27:00.760Z,98982.75
2022-12-31T02:30:11.345Z,98981.28
2022-12-31T02:32:56.383Z,98975.22
2022-12-31T02:35:30.813Z,98976.72
2022-12-31T02:38:07.089Z,98975.22
2022-12-31T02:40:38.176Z,98988.22
2022-12-31T02:43:07.893Z,98987.31
2022-12-31T02:45:40.618Z,98992.44
2022-12-31T02:48:24.680Z,98992.84
2022-12-31T02:51:01.732Z,98985.16
2022-12-31T02:53:54.787Z,98991.19
2022-12-31T02:56:30.890Z,98985.16
2022-12-31T02:59:20.565Z,98977.78
2022-12-31T03:02:15.539Z,98984.00
2022-12-31T03:04:47.958Z,98983.25
2022-12-31T03:07:21.238Z,98979.44
2022-12-31T03:09:50.446Z,98978.72
2022-12-31T03:12:38.691Z,98972.84
2022-12-31T03:15:20.308Z,98974.66
2022-12-31T03:17:57.524Z,98980.69
2022-12-31T03:20:48.622Z,98984.34
2022-12-31T03:23:21.715Z,98981.03
2022-12-31T03:25:49.862Z,98985.41
2022-12-31T03:28:21.044Z,98991.28
2022-12-31T03:30:52.075Z,98992.94
2022-12-31T03:33:23.917Z,98986.16
2022-12-31T03:35:53.923Z,98981.75
2022-12-31T03:38:23.236Z,98983.38
2022-12-31T03:40:54.292Z,98985.03
2022-12-31T03:43:23.288Z,98983.22
2022-12-31T03:45:53.593Z,98984.72
2022-12-31T03:48:25.142Z,98987.06
2022-12-31T03:50:54.361Z,98986.16
2022-12-31T03:53:24.354Z,98979.91
2022-12-31T03:55:53.571Z,98986.69
2022-12-31T03:58:23.287Z,98990.34
2022-12-31T04:00:52.511Z,98989.84
2022-12-31T04:03:21.654Z,98996.81
2022-12-31T04:05:56.545Z,98995.72
2022-12-31T04:08:26.098Z,98998.69
2022-12-31T04:10:55.184Z,98995.41
2022-12-31T04:13:24.275Z,98997.22
2022-12-31T04:15:53.381Z,99003.59
2022-12-31T04:18:22.374Z,99000.44
2022-12-31T04:20:51.482Z,99012.34
2022-12-31T04:23:21.914Z,99016.00
2022-12-31T04:25:50.985Z,99012.53
2022-12-31T04:28:19.971Z,99015.09
2022-12-31T04:30:48.962Z,99021.69
2022-12-31T04:33:18.840Z,99021.69
2022-12-31T04:35:47.995Z,99023.19
2022-12-31T04:38:17.154Z,99019.53
2022-12-31T04:41:01.804Z,99022.81
2022-12-31T04:43:30.914Z,99027.94
2022-12-31T04:46:00.139Z,99035.78
2022-12-31T04:48:29.194Z,99029.75
2022-12-31T04:50:58.225Z,99021.00
2022-12-31T04:53:27.313Z,99024.28
2022-12-31T04:55:57.852Z,99025.03
2022-12-31T04:58:26.992Z,99030.00
2022-12-31T05:00:56.731Z,99037.09
2022-12-31T05:03:27.445Z,99043.13
2022-12-31T05:06:02.928Z,99049.34
2022-12-31T05:08:32.603Z,99045.88
2022-12-31T05:11:03.155Z,99051.16
2022-12-31T05:13:33.473Z,99045.88
2022-12-31T05:16:03.653Z,99052.06
2022-12-31T05:18:33.430Z,99060.13
2022-12-31T05:21:02.540Z,99064.16
2022-12-31T05:23:31.655Z,99073.50
2022-12-31T05:26:02.507Z,99074.41
2022-12-31T05:28:32.765Z,99073.31
2022-12-31T05:31:01.877Z,99085.38
2022-12-31T05:33:31.202Z,99085.38
2022-12-31T05:36:00.242Z,99085.56
2022-12-31T05:38:29.401Z,99087.94
2022-12-31T05:41:04.921Z,99093.41
2022-12-31T05:43:34.395Z,99103.66
2022-12-31T05:46:04.611Z,99108.78
2022-12-31T05:48:33.933Z,99109.38
2022-12-31T05:51:03.014Z,99112.44
2022-12-31T05:53:31.960Z,99126.72
2022-12-31T05:56:01.039Z,99136.22
2022-12-31T05:58:31.502Z,99142.28
2022-12-31T06:01:00.561Z,99144.66
2022-12-31T06:03:29.687Z,99157.06
2022-12-31T06:05:58.681Z,99154.72
2022-12-31T06:08:27.621Z,99151.25
2022-12-31T06:10:56.772Z,99158.19
2022-12-31T06:13:25.861Z,99161.50
2022-12-31T06:15:56.354Z,99161.50
2022-12-31T06:18:25.537Z,99164.75
2022-12-31T06:20:54.941Z,99171.16
2022-12-31T06:23:23.879Z,99176.88
2022-12-31T06:25:53.054Z,99192.03
2022-12-31T06:28:22.208Z,99189.66
2022-12-31T06:30:51.224Z,99195.72
2022-12-31T06:33:21.762Z,99208.50
2022-12-31T06:35:50.787Z,99208.69
2022-12-31T06:38:19.771Z,99212.50
2022-12-31T06:40:48.781Z,99219.09
2022-12-31T06:43:17.878Z,99220.59
2022-12-31T06:45:46.960Z,99226.22
2022-12-31T06:48:16.367Z,99221.09
2022-12-31T06:50:46.680Z,99216.19
2022-12-31T06:53:15.732Z,99223.50
2022-12-31T06:55:45.549Z,99232.84
2022-12-31T06:58:15.726Z,99226.03
2022-12-31T07:00:55.223Z,99233.91
2022-12-31T07:03:35.192Z,99235.72
2022-12-31T07:06:12.045Z,99244.50
2022-12-31T07:08:51.253Z,99249.41
2022-12-31T07:11:23.878Z,99259.50
2022-12-31T07:14:08.451Z,99254.91
2022-12-31T07:16:54.376Z,99259.28
2022-12-31T07:19:30.554Z,99259.25
2022-12-31T07:22:00.897Z,99270.25
2022-12-31T07:24:30.376Z,99276.50
2022-12-31T07:27:11.082Z,99285.63
2022-12-31T07:29:56.400Z,99279.59
2022-12-31T07:32:40.113Z,99283.97
2022-12-31T07:35:18.488Z,99285.09
2022-12-31T07:38:01.167Z,99283.44
2022-12-31T07:40:39.764Z,99286.91
2022-12-31T07:43:16.810Z,99296.25
2022-12-31T07:45:52.336Z,99299.72
2022-12-31T07:48:26.298Z,99292.19
2022-12-31T07:50:57.464Z,99298.81
2022-12-31T07:53:29.144Z,99301.91
2022-12-31T07:56:01.141Z,99313.97
2022-12-31T07:58:42.083Z,99316.53
2022-12-31T08:01:13.847Z,99323.31
2022-12-31T08:03:53.089Z,99318.34
2022-12-31T08:06:35.123Z,99324.75
2022-12-31T08:09:12.853Z,99315.78
2022-12-31T08:11:47.938Z,99322.38
2022-12-31T08:14:17.649Z,99326.00
2022-12-31T08:16:47.099Z,99328.19
2022-12-31T08:19:24.972Z,99330.38
2022-12-31T08:22:08.850Z,99328.53
2022-12-31T08:24:51.517Z,99332.50
2022-12-31T08:27:30.216Z,99332.09
2022-12-31T08:30:08.762Z,99332.66
2022-12-31T08:32:44.431Z,99328.03
2022-12-31T08:35:23.640Z,99332.38
2022-12-31T08:38:01.839Z,99332.34
2022-12-31T08:40:39.774Z,99334.72
2022-12-31T08:43:22.304Z,99327.22
2022-12-31T08:45:53.491Z,99330.88
2022-12-31T08:48:31.282Z,99331.47
2022-12-31T08:51:00.768Z,99341.13
2022-12-31T08:53:30.235Z,99343.53
2022-12-31T08:56:06.431Z,99332.34
2022-12-31T08:58:47.939Z,99335.63
2022-12-31T09:01:22.322Z,99341.47
2022-12-31T09:04:09.286Z,99357.22
2022-12-31T09:06:45.374Z,99360.59
2022-12-31T09:09:23.513Z,99358.56
2022-12-31T09:12:01.887Z,99356.03
2022-12-31T09:14:44.336Z,99370.94
2022-12-31T09:17:33.449Z,99366.09
2022-12-31T09:20:06.271Z,99364.81
2022-12-31T09:22:35.935Z,99362.78
2022-12-31T09:25:05.426Z,99363.16
2022-12-31T09:27:43.775Z,99364.56
2022-12-31T09:30:16.359Z,99369.88
2022-12-31T09:33:00.559Z,99359.59
2022-12-31T09:35:38.210Z,99363.97
2022-12-31T09:38:16.393Z,99366.47
2022-12-31T09:40:58.710Z,99370.38
2022-12-31T09:44:15.871Z,99365.38
2022-12-31T09:47:33.208Z,99366.84
2022-12-31T09:50:22.492Z,99391.56
2022-12-31T09:53:07.040Z,99404.63
2022-12-31T09:55:41.359Z,99404.44
2022-12-31T09:58:28.463Z,99408.91
2022-12-31T10:01:04.997Z,99417.69
2022-12-31T10:03:53.369Z,99412.28
2022-12-31T10:06:29.607Z,99411.41
2022-12-31T10:09:07.120Z,99415.19
2022-12-31T10:12:04.025Z,99400.53
2022-12-31T10:14:50.519Z,99395.94
2022-12-31T10:17:31.206Z,99392.81
2022-12-31T10:20:45.485Z,99398.66
2022-12-31T10:23:28.416Z,99412.94
2022-12-31T10:26:18.937Z,99416.00
2022-12-31T10:28:55.428Z,99436.78
2022-12-31T10:31:48.449Z,99445.94
2022-12-31T10:34:23.864Z,99442.84
2022-12-31T10:36:59.564Z,99449.63
2022-12-31T10:39:49.375Z,99459.09
2022-12-31T10:42:37.821Z,99465.56
2022-12-31T10:45:31.896Z,99469.19
2022-12-31T10:48:38.010Z,99477.75
2022-12-31T10:51:44.733Z,99480.03
2022-12-31T10:54:53.411Z,99478.06
2022-12-31T10:58:00.307Z,99474.84
2022-12-31T11:00:39.032Z,99477.41
2022-12-31T11:03:47.329Z,99484.41
2022-12-31T11:07:01.567Z,99497.09
2022-12-31T11:10:06.843Z,99495.44
2022-12-31T11:13:01.569Z,99486.63
2022-12-31T11:15:50.425Z,99478.78
2022-12-31T11:18:30.887Z,99484.66
2022-12-31T11:21:28.194Z,99481.31
2022-12-31T11:24:07.365Z,99471.19
2022-12-31T11:26:48.672Z,99473.75
2022-12-31T11:29:38.802Z,99476.31
2022-12-31T11:32:19.602Z,99469.72
2022-12-31T11:35:13.503Z,99499.03
2022-12-31T11:37:48.686Z,99520.72
2022-12-31T11:40:33.565Z,99523.69
2022-12-31T11:43:09.783Z,99521.81
2022-12-31T11:46:03.591Z,99537.81
2022-12-31T11:48:38.253Z,99541.84
2022-12-31T11:51:24.058Z,99540.00
2022-12-31T11:54:14.746Z,99537.59
2022-12-31T11:57:01.487Z,99541.31
2022-12-31T11:59:30.495Z,99554.53
2022-12-31T12:02:05.927Z,99564.06
2022-12-31T12:04:34.581Z,99552.34
2022-12-31T12:07:03.632Z,99564.97
2022-12-31T12:09:35.799Z,99569.78
2022-12-31T12:12:06.987Z,99571.06
2022-12-31T12:14:38.334Z,99569.56
2022-12-31T12:17:15.172Z,99568.09
2022-12-31T12:19:46.490Z,99568.09
2022-12-31T12:22:22.490Z,99560.22
2022-12-31T12:24:58.179Z,99566.63
2022-12-31T12:27:30.830Z,99572.88
2022-12-31T12:29:59.943Z,99572.13
2022-12-31T12:32:30.594Z,99571.97
2022-12-31T12:35:00.243Z,99576.19
2022-12-31T12:37:33.351Z,99580.38
2022-12-31T12:40:05.022Z,99590.47
2022-12-31T12:42:34.207Z,99593.41
2022-12-31T12:45:06.303Z,99592.31
2022-12-31T12:47:36.962Z,99592.13
2022-12-31T12:50:07.791Z,99592.66
2022-12-31T12:53:01.218Z,99584.06
2022-12-31T12:55:42.253Z,99587.16
2022-12-31T12:58:23.315Z,99598.94
2022-12-31T13:01:05.471Z,99613.41
2022-12-31T13:07:17.938Z,99593.78
2022-12-31T13:10:18.973Z,99613.41
2022-12-31T13:15:53.880Z,99611.22
2022-12-31T13:18:38.457Z,99612.53
2022-12-31T13:21:21.165Z,99606.25
2022-12-31T13:23:56.549Z,99612.84
2022-12-31T13:26:33.150Z,99611.59
2022-12-31T13:29:05.672Z,99602.25
2022-12-31T13:31:37.826Z,99600.59
2022-12-31T13:34:12.386Z,99603.53
2022-12-31T13:36:43.797Z,99606.84
2022-12-31T13:39:20.571Z,99609.59
2022-12-31T13:41:56.597Z,99627.75
2022-12-31T13:44:30.552Z,99630.13
2022-12-31T13:47:05.888Z,99636.00
2022-12-31T13:49:38.571Z,99625.91
2022-12-31T13:52:23.177Z,99628.84
2022-12-31T13:54:59.759Z,99614.72
2022-12-31T13:57:40.459Z,99628.66
2022-12-31T14:00:21.572Z,99622.97
2022-12-31T14:02:59.995Z,99616.94
2022-12-31T14:05:35.708Z,99618.03
2022-12-31T14:08:07.354Z,99605.38
2022-12-31T14:10:55.865Z,99618.03
2022-12-31T14:13:57.579Z,99623.53
2022-12-31T14:16:36.155Z,99631.22
2022-12-31T14:19:15.383Z,99633.97
2022-12-31T14:21:50.299Z,99633.78
2022-12-31T14:24:33.151Z,99626.81
2022-12-31T14:27:09.957Z,99623.53
2022-12-31T14:29:43.982Z,99628.66
2022-12-31T14:32:36.752Z,99623.88
2022-12-31T14:35:24.095Z,99626.81
2022-12-31T14:38:00.587Z,99630.50
2022-12-31T14:40:41.122Z,99626.44
2022-12-31T14:43:26.335Z,99618.72
2022-12-31T14:46:10.520Z,99618.03
2022-12-31T14:48:49.592Z,99617.28
2022-12-31T14:51:18.732Z,99620.59
2022-12-31T14:53:54.597Z,99613.72
2022-12-31T14:56:32.271Z,99610.13
2022-12-31T14:59:04.027Z,99611.19
2022-12-31T15:01:33.884Z,99614.06
2022-12-31T15:04:02.939Z,99607.22
2022-12-31T15:06:51.747Z,99609.47
2022-12-31T15:09:53.869Z,99604.63
2022-12-31T15:12:40.222Z,99606.00
2022-12-31T15:15:24.321Z,99603.25
2022-12-31T15:18:04.747Z,99608.59
2022-12-31T15:20:50.514Z,99607.53
2022-12-31T15:23:24.459Z,99605.50
2022-12-31T15:25:59.429Z,99613.03
2022-12-31T15:28:34.064Z,99610.28
2022-12-31T15:31:13.084Z,99614.34
2022-12-31T15:33:58.037Z,99605.91
2022-12-31T15:36:28.788Z,99613.59
2022-12-31T15:39:23.299Z,99612.84
2022-12-31T15:42:36.317Z,99616.16
2022-12-31T15:44:49.972Z,99619.84
2022-12-31T15:47:30.674Z,99624.78
2022-12-31T15:50:03.972Z,99626.44
2022-12-31T15:52:41.303Z,99630.66
2022-12-31T15:55:21.856Z,99631.41
2022-12-31T15:57:51.805Z,99624.97
2022-12-31T16:00:23.210Z,99620.59
2022-12-31T16:02:55.993Z,99617.66
2022-12-31T16:05:27.207Z,99616.22
2022-12-31T16:07:57.526Z,99626.25
2022-12-31T16:10:30.424Z,99628.84
2022-12-31T16:13:00.963Z,99630.84
2022-12-31T16:15:32.900Z,99615.63
2022-12-31T16:18:06.294Z,99608.50
2022-12-31T16:20:42.195Z,99619.69
2022-12-31T16:23:22.578Z,99618.03
2022-12-31T16:25:53.486Z,99619.84
2022-12-31T16:28:26.531Z,99627.75
2022-12-31T16:31:01.868Z,99625.72
2022-12-31T16:33:33.402Z,99619.09
2022-12-31T16:36:05.324Z,99627.50
2022-12-31T16:38:36.181Z,99627.34
2022-12-31T16:41:19.684Z,99616.00
2022-12-31T16:43:50.667Z,99610.13
2022-12-31T16:46:23.100Z,99609.59
2022-12-31T16:48:58.002Z,99607.75
2022-12-31T16:51:31.158Z,99603.72
2022-12-31T16:54:02.891Z,99603.38
2022-12-31T16:56:35.625Z,99599.88
2022-12-31T16:59:08.690Z,99607.03
2022-12-31T17:01:38.911Z,99611.03
2022-12-31T17:04:12.556Z,99605.94
2022-12-31T17:06:41.638Z,99604.81
2022-12-31T17:09:20.698Z,99607.03
2022-12-31T17:11:54.126Z,99604.47
2022-12-31T17:14:30.749Z,99582.66
2022-12-31T17:17:03.498Z,99589.63
2022-12-31T17:19:46.172Z,99592.75
2022-12-31T17:22:31.539Z,99592.38
2022-12-31T17:25:05.607Z,99583.00
2022-12-31T17:27:35.907Z,99583.03
2022-12-31T17:30:24.597Z,99593.47
2022-12-31T17:32:54.110Z,99601.50
2022-12-31T17:35:32.111Z,99598.63
2022-12-31T17:38:30.404Z,99607.94
2022-12-31T17:41:15.174Z,99599.53
2022-12-31T17:43:44.575Z,99596.06
2022-12-31T17:46:16.328Z,99598.41
2022-12-31T17:48:47.180Z,99587.97
2022-12-31T17:51:17.672Z,99589.63
2022-12-31T17:53:53.611Z,99586.13
2022-12-31T17:56:22.927Z,99585.75
2022-12-31T17:58:53.985Z,99588.31
2022-12-31T18:01:24.566Z,99589.81
2022-12-31T18:03:53.799Z,99587.97
2022-12-31T18:06:24.771Z,99586.88
2022-12-31T18:08:53.944Z,99583.94
2022-12-31T18:11:25.026Z,99581.03
2022-12-31T18:13:55.578Z,99571.69
2022-12-31T18:16:24.989Z,99575.53
2022-12-31T18:19:01.506Z,99570.94
2022-12-31T18:21:34.395Z,99572.22
2022-12-31T18:26:34.764Z,99573.13
2022-12-31T18:29:17.221Z,99569.09
2022-12-31T18:31:47.942Z,99560.66
2022-12-31T18:34:19.134Z,99557.94
2022-12-31T18:36:49.582Z,99552.44
2022-12-31T18:39:18.803Z,99556.47
2022-12-31T18:41:49.950Z,99554.63
2022-12-31T18:44:19.498Z,99552.81
2022-12-31T18:46:48.638Z,99537.41
2022-12-31T18:49:17.644Z,99530.63
2022-12-31T18:51:46.720Z,99536.84
2022-12-31T18:54:17.785Z,99532.28
2022-12-31T18:56:49.281Z,99533.00
2022-12-31T18:59:20.465Z,99513.22
2022-12-31T19:01:49.600Z,99522.41
2022-12-31T19:04:27.210Z,99520.91
2022-12-31T19:06:57.782Z,99518.94
2022-12-31T19:09:45.111Z,99525.13
2022-12-31T19:12:16.277Z,99522.94
2022-12-31T19:14:45.727Z,99525.34
2022-12-31T19:17:15.050Z,99524.75
2022-12-31T19:19:44.151Z,99521.50
2022-12-31T19:22:16.607Z,99513.81
2022-12-31T19:24:46.987Z,99513.59
2022-12-31T19:27:17.210Z,99510.28
2022-12-31T19:29:46.275Z,99512.16
2022-12-31T19:32:15.313Z,99506.66
2022-12-31T19:34:44.419Z,99504.09
2022-12-31T19:37:16.490Z,99503.16
2022-12-31T19:39:46.887Z,99492.34
2022-12-31T19:42:17.337Z,99490.50
2022-12-31T19:44:48.643Z,99488.84
2022-12-31T19:47:17.770Z,99478.44
2022-12-31T19:49:47.124Z,99473.66
2022-12-31T19:52:16.251Z,99464.84
2022-12-31T19:54:46.695Z,99463.03
2022-12-31T19:57:15.817Z,99465.78
2022-12-31T19:59:44.750Z,99452.97
2022-12-31T20:02:15.250Z,99445.13
2022-12-31T20:04:44.446Z,99461.25
2022-12-31T20:07:13.510Z,99445.50
2022-12-31T20:09:42.523Z,99442.97
2022-12-31T20:12:12.904Z,99451.00
2022-12-31T20:14:41.902Z,99455.56
2022-12-31T20:17:11.129Z,99450.06
2022-12-31T20:19:40.658Z,99452.78
2022-12-31T20:22:09.804Z,99457.94
2022-12-31T20:24:38.973Z,99457.78
2022-12-31T20:27:13.511Z,99461.25
2022-12-31T20:29:47.093Z,99452.81
2022-12-31T20:32:16.254Z,99449.88
2022-12-31T20:34:45.201Z,99445.88
2022-12-31T20:37:14.354Z,99436.34
2022-12-31T20:39:44.157Z,99419.88
2022-12-31T20:42:13.117Z,99434.53
2022-12-31T20:44:42.085Z,99437.44
2022-12-31T20:47:12.614Z,99434.13
2022-12-31T20:52:32.823Z,99436.53
2022-12-31T20:55:01.928Z,99436.34
2022-12-31T20:57:33.944Z,99434.34
2022-12-31T21:00:03.405Z,99426.84
2022-12-31T21:02:42.184Z,99429.03
2022-12-31T21:05:12.574Z,99426.47
2022-12-31T21:07:41.891Z,99410.50
2022-12-31T21:10:11.233Z,99400.97
2022-12-31T21:12:53.149Z,99386.31
2022-12-31T21:15:22.641Z,99385.41
2022-12-31T21:17:53.166Z,99377.00
2022-12-31T21:20:22.316Z,99356.88
2022-12-31T21:22:51.330Z,99346.63
2022-12-31T21:25:20.385Z,99347.91
2022-12-31T21:27:49.598Z,99340.38
2022-12-31T21:30:19.519Z,99339.63
2022-12-31T21:32:49.296Z,99333.59
2022-12-31T21:38:09.179Z,99314.59
2022-12-31T21:40:38.185Z,99338.38
2022-12-31T21:43:07.180Z,99336.53
2022-12-31T21:45:36.154Z,99334.72
2022-12-31T21:48:21.580Z,99334.72
2022-12-31T21:50:53.243Z,99340.59
2022-12-31T21:53:32.113Z,99341.13
2022-12-31T21:56:14.722Z,99332.16
2022-12-31T21:58:46.790Z,99326.50
2022-12-31T22:01:38.028Z,99327.41
2022-12-31T22:04:28.171Z,99314.97
2022-12-31T22:06:58.717Z,99315.28
2022-12-31T22:09:27.858Z,99317.69
2022-12-31T22:11:56.892Z,99310.75
2022-12-31T22:14:26.056Z,99307.06
2022-12-31T22:16:55.163Z,99300.28
2022-12-31T22:19:24.849Z,99305.63
2022-12-31T22:21:53.884Z,99299.59
2022-12-31T22:24:24.312Z,99301.25
2022-12-31T22:26:55.777Z,99298.09
2022-12-31T22:29:26.105Z,99294.47
2022-12-31T22:32:00.919Z,99292.59
2022-12-31T22:34:30.429Z,99291.69
2022-12-31T22:37:08.923Z,99284.59
2022-12-31T22:39:50.044Z,99281.28
2022-12-31T22:42:19.152Z,99271.78
2022-12-31T22:44:48.194Z,99268.25
2022-12-31T22:47:17.333Z,99262.59
2022-12-31T22:49:46.719Z,99259.47
2022-12-31T22:52:15.783Z,99253.59
2022-12-31T22:54:44.804Z,99250.50
2022-12-31T22:57:19.995Z,99251.94
2022-12-31T22:59:49.399Z,99250.28
2022-12-31T23:02:18.560Z,99249.22
2022-12-31T23:04:47.553Z,99246.66
2022-12-31T23:07:16.577Z,99238.78
2022-12-31T23:10:02.676Z,99238.63
2022-12-31T23:12:33.422Z,99238.63
2022-12-31T23:15:19.966Z,99233.84
2022-12-31T23:18:06.286Z,99226.91
2022-12-31T23:20:52.434Z,99219.22
2022-12-31T23:23:21.595Z,99217.88
2022-12-31T23:25:52.652Z,99210.78
2022-12-31T23:28:24.793Z,99204.16
2022-12-31T23:30:54.518Z,99204.16
2022-12-31T23:33:26.183Z,99200.13
2022-12-31T23:36:03.910Z,99190.78
2022-12-31T23:38:32.999Z,99182.75
2022-12-31T23:41:01.975Z,99183.09
2022-12-31T23:43:32.734Z,99174.66
2022-12-31T23:46:01.757Z,99175.56
2022-12-31T23:48:30.756Z,99179.97
2022-12-31T23:50:59.765Z,99186.19
2022-12-31T23:53:28.746Z,99185.28
2022-12-31T23:55:58.940Z,99180.31
2022-12-31T23:58:27.888Z,99175.19
